createdAt,value
2023-04-03T00:01:04.006Z,0.47
2023-04-03T00:04:15.968Z,0.88
2023-04-03T00:07:26.348Z,0.88
2023-04-03T00:10:35.500Z,0.40
2023-04-03T00:13:48.137Z,0.62
2023-04-03T00:16:58.227Z,0.33
2023-04-03T00:20:06.548Z,0.60
2023-04-03T00:23:18.974Z,0.60
2023-04-03T00:26:30.719Z,0.68
2023-04-03T00:29:44.227Z,0.53
2023-04-03T00:32:55.906Z,0.50
2023-04-03T00:36:06.110Z,0.55
2023-04-03T00:39:15.508Z,0.60
2023-04-03T00:42:27.873Z,0.93
2023-04-03T00:45:40.822Z,0.73
2023-04-03T00:48:52.823Z,0.53
2023-04-03T00:52:01.094Z,0.70
2023-04-03T00:55:15.413Z,0.62
2023-04-03T00:58:30.528Z,0.80
2023-04-03T01:01:42.458Z,0.98
2023-04-03T01:04:51.957Z,1.70
2023-04-03T01:08:02.039Z,0.90
2023-04-03T01:11:15.068Z,0.95
2023-04-03T01:14:23.231Z,2.02
2023-04-03T01:17:35.109Z,1.75
2023-04-03T01:21:34.344Z,0.93
2023-04-03T01:24:47.061Z,1.37
2023-04-03T01:27:54.470Z,1.47
2023-04-03T01:31:11.635Z,1.25
2023-04-03T01:34:23.702Z,2.10
2023-04-03T01:37:37.840Z,1.30
2023-04-03T01:40:52.430Z,1.62
2023-04-03T01:44:02.896Z,2.30
2023-04-03T01:47:13.132Z,1.30
2023-04-03T01:50:22.294Z,1.37
2023-04-03T01:53:33.147Z,1.10
2023-04-03T01:56:44.864Z,1.65
2023-04-03T01:59:53.826Z,1.70
2023-04-03T02:03:06.620Z,0.88
2023-04-03T02:06:19.050Z,0.80
2023-04-03T02:09:29.194Z,2.27
2023-04-03T02:12:37.375Z,1.52
2023-04-03T02:15:46.880Z,1.35
2023-04-03T02:18:54.281Z,1.62
2023-04-03T02:22:03.388Z,2.40
2023-04-03T02:25:18.830Z,1.92
2023-04-03T02:28:33.304Z,1.45
2023-04-03T02:31:44.609Z,1.72
2023-04-03T02:34:56.214Z,1.60
2023-04-03T02:38:09.005Z,2.45
2023-04-03T02:41:21.515Z,1.20
2023-04-03T02:44:32.581Z,1.85
2023-04-03T02:47:44.543Z,1.85
2023-04-03T02:50:55.606Z,1.35
2023-04-03T02:54:05.322Z,1.12
2023-04-03T02:57:14.464Z,1.00
2023-04-03T03:00:26.618Z,2.25
2023-04-03T03:03:38.081Z,1.07
2023-04-03T03:06:48.035Z,1.05
2023-04-03T03:09:57.078Z,0.70
2023-04-03T03:13:09.046Z,1.42
2023-04-03T03:16:21.793Z,1.00
2023-04-03T03:19:34.370Z,1.47
2023-04-03T03:22:44.694Z,1.00
2023-04-03T03:25:57.039Z,0.98
2023-04-03T03:29:07.858Z,0.95
2023-04-03T03:32:16.120Z,0.85
2023-04-03T03:35:26.878Z,1.65
2023-04-03T03:38:36.325Z,0.60
2023-04-03T03:41:44.533Z,1.07
2023-04-03T03:44:56.856Z,0.85
2023-04-03T03:48:05.527Z,0.60
2023-04-03T03:51:16.411Z,1.22
2023-04-03T03:54:25.724Z,1.20
2023-04-03T03:57:36.021Z,1.12
2023-04-03T04:00:47.838Z,0.80
2023-04-03T04:04:01.393Z,1.20
2023-04-03T04:07:11.228Z,1.20
2023-04-03T04:10:20.683Z,0.95
2023-04-03T04:13:31.970Z,0.72
2023-04-03T04:16:41.038Z,0.80
2023-04-03T04:19:51.935Z,0.60
2023-04-03T04:23:02.477Z,1.02
2023-04-03T04:26:12.522Z,0.85
2023-04-03T04:29:23.967Z,0.53
2023-04-03T04:32:33.542Z,0.98
2023-04-03T04:35:46.154Z,0.70
2023-04-03T04:38:58.273Z,0.70
2023-04-03T04:42:09.157Z,0.95
2023-04-03T04:45:20.639Z,0.80
2023-04-03T04:48:34.185Z,1.07
2023-04-03T04:51:52.045Z,0.85
2023-04-03T04:55:00.661Z,1.05
2023-04-03T04:58:10.457Z,1.27
2023-04-03T05:01:22.533Z,0.70
2023-04-03T05:04:35.936Z,0.75
2023-04-03T05:10:57.141Z,0.90
2023-04-03T05:14:09.809Z,0.93
2023-04-03T05:17:20.868Z,0.98
2023-04-03T05:20:31.718Z,0.85
2023-04-03T05:23:41.717Z,0.80
2023-04-03T05:26:52.350Z,0.85
2023-04-03T05:30:01.949Z,0.65
2023-04-03T05:33:14.410Z,0.78
2023-04-03T05:36:25.229Z,0.50
2023-04-03T05:39:34.625Z,0.60
2023-04-03T05:42:47.578Z,0.80
2023-04-03T05:45:58.292Z,1.07
2023-04-03T05:49:11.881Z,0.80
2023-04-03T05:52:24.904Z,0.75
2023-04-03T05:55:35.332Z,1.02
2023-04-03T05:58:45.126Z,0.80
2023-04-03T06:01:54.698Z,0.82
2023-04-03T06:05:05.860Z,0.90
2023-04-03T06:08:18.003Z,1.02
2023-04-03T06:11:28.246Z,0.85
2023-04-03T06:14:36.779Z,1.00
2023-04-03T06:17:45.775Z,1.00
2023-04-03T06:20:57.431Z,0.80
2023-04-03T06:24:04.830Z,1.17
2023-04-03T06:27:17.559Z,1.40
2023-04-03T06:30:28.334Z,0.57
2023-04-03T06:33:42.502Z,0.93
2023-04-03T06:36:52.188Z,0.80
2023-04-03T06:40:01.956Z,0.60
2023-04-03T06:43:15.602Z,0.93
2023-04-03T06:46:25.018Z,1.25
2023-04-03T06:49:35.539Z,0.98
2023-04-03T06:52:48.325Z,0.72
2023-04-03T06:55:59.691Z,0.75
2023-04-03T06:59:12.130Z,0.80
2023-04-03T07:02:25.927Z,1.05
2023-04-03T07:05:39.931Z,0.72
2023-04-03T07:08:50.823Z,0.60
2023-04-03T07:12:04.660Z,1.10
2023-04-03T07:15:21.208Z,0.65
2023-04-03T07:18:30.262Z,1.10
2023-04-03T07:21:42.153Z,0.60
2023-04-03T07:24:52.739Z,0.62
2023-04-03T07:28:05.851Z,0.60
2023-04-03T07:31:15.593Z,0.93
2023-04-03T07:34:24.427Z,0.78
2023-04-03T07:37:38.241Z,0.50
2023-04-03T07:40:49.538Z,0.62
2023-04-03T07:44:01.095Z,0.65
2023-04-03T07:47:11.358Z,0.62
2023-04-03T07:50:23.174Z,1.10
2023-04-03T07:53:34.887Z,0.70
2023-04-03T07:56:45.431Z,0.85
2023-04-03T07:59:56.056Z,1.00
2023-04-03T08:03:09.606Z,0.80
2023-04-03T08:06:29.397Z,0.80
2023-04-03T08:09:34.489Z,0.65
2023-04-03T08:12:43.180Z,0.62
2023-04-03T08:15:55.655Z,0.60
2023-04-03T08:19:12.411Z,0.60
2023-04-03T08:22:20.114Z,0.40
2023-04-03T08:25:31.826Z,0.70
2023-04-03T08:28:42.006Z,0.88
2023-04-03T08:31:51.436Z,0.90
2023-04-03T08:35:00.718Z,1.22
2023-04-03T08:38:11.213Z,0.60
2023-04-03T08:41:24.895Z,0.70
2023-04-03T08:44:44.471Z,0.70
2023-04-03T08:47:56.699Z,0.65
2023-04-03T08:51:12.632Z,1.00
2023-04-03T08:54:24.750Z,1.22
2023-04-03T08:57:38.468Z,1.15
2023-04-03T09:00:53.088Z,0.60
2023-04-03T09:04:06.906Z,1.07
2023-04-03T09:07:19.256Z,0.80
2023-04-03T09:10:31.709Z,0.75
2023-04-03T09:13:46.802Z,0.60
2023-04-03T09:16:58.871Z,0.88
2023-04-03T09:20:16.727Z,0.60
2023-04-03T09:23:31.988Z,0.80
2023-04-03T09:26:47.388Z,0.85
2023-04-03T09:29:59.205Z,0.85
2023-04-03T09:33:10.843Z,1.00
2023-04-03T09:36:24.076Z,0.95
2023-04-03T09:39:34.852Z,0.78
2023-04-03T09:42:48.954Z,0.75
2023-04-03T09:45:58.110Z,0.72
2023-04-03T09:49:09.902Z,0.78
2023-04-03T09:52:28.418Z,0.95
2023-04-03T09:55:40.752Z,0.57
2023-04-03T09:58:53.260Z,0.60
2023-04-03T10:02:09.307Z,1.23
2023-04-03T10:05:38.670Z,0.70
2023-04-03T10:08:52.497Z,0.70
2023-04-03T10:12:09.162Z,0.85
2023-04-03T10:15:22.388Z,0.78
2023-04-03T10:18:55.040Z,0.47
2023-04-03T10:22:05.688Z,0.83
2023-04-03T10:25:18.810Z,0.80
2023-04-03T10:28:32.738Z,0.70
2023-04-03T10:31:46.894Z,0.55
2023-04-03T10:35:05.195Z,0.70
2023-04-03T10:38:13.299Z,1.07
2023-04-03T10:41:28.685Z,0.78
2023-04-03T10:44:47.107Z,0.55
2023-04-03T10:48:01.172Z,0.80
2023-04-03T10:51:19.172Z,0.70
2023-04-03T10:54:35.469Z,1.42
2023-04-03T10:57:48.277Z,0.90
2023-04-03T11:00:58.275Z,0.53
2023-04-03T11:04:11.413Z,0.82
2023-04-03T11:07:21.833Z,1.27
2023-04-03T11:10:36.436Z,0.72
2023-04-03T11:13:50.861Z,0.90
2023-04-03T11:17:07.722Z,0.55
2023-04-03T11:20:24.510Z,1.10
2023-04-03T11:23:45.843Z,2.17
2023-04-03T11:26:48.891Z,1.10
2023-04-03T11:30:01.543Z,0.87
2023-04-03T11:33:30.986Z,0.55
2023-04-03T11:36:46.971Z,0.68
2023-04-03T11:39:58.981Z,1.45
2023-04-03T11:43:11.936Z,0.93
2023-04-03T11:46:22.473Z,1.47
2023-04-03T11:50:01.811Z,1.12
2023-04-03T11:53:34.010Z,1.90
2023-04-03T11:56:44.619Z,2.72
2023-04-03T11:59:56.269Z,2.08
2023-04-03T12:03:12.591Z,1.98
2023-04-03T12:07:10.857Z,1.52
2023-04-03T12:10:32.313Z,1.77
2023-04-03T12:13:37.263Z,1.37
2023-04-03T12:16:51.476Z,2.10
2023-04-03T12:20:01.359Z,1.05
2023-04-03T12:23:37.623Z,1.80
2023-04-03T12:26:49.863Z,1.52
2023-04-03T12:30:08.216Z,1.27
2023-04-03T12:33:39.500Z,1.67
2023-04-03T12:36:56.771Z,1.00
2023-04-03T12:40:20.238Z,1.82
2023-04-03T12:43:39.617Z,1.32
2023-04-03T12:46:52.729Z,0.98
2023-04-03T12:50:04.128Z,1.22
2023-04-03T12:53:19.357Z,1.25
2023-04-03T12:56:33.734Z,0.90
2023-04-03T12:59:47.133Z,0.90
2023-04-03T13:06:02.198Z,1.50
2023-04-03T13:09:19.640Z,1.05
2023-04-03T13:12:32.470Z,0.80
2023-04-03T13:15:50.350Z,1.45
2023-04-03T13:18:58.938Z,0.90
2023-04-03T13:22:08.751Z,1.07
2023-04-03T13:25:18.118Z,1.52
2023-04-03T13:28:28.741Z,1.10
2023-04-03T13:31:39.866Z,1.12
2023-04-03T13:34:50.003Z,0.70
2023-04-03T13:38:00.662Z,1.35
2023-04-03T13:41:26.417Z,1.92
2023-04-03T13:44:42.763Z,1.30
2023-04-03T13:47:53.155Z,1.20
2023-04-03T13:51:07.323Z,1.12
2023-04-03T13:54:22.339Z,1.67
2023-04-03T13:57:33.395Z,1.10
2023-04-03T14:00:46.636Z,1.10
2023-04-03T14:07:04.838Z,1.62
2023-04-03T14:10:18.217Z,0.75
2023-04-03T14:16:35.616Z,1.12
2023-04-03T14:19:47.197Z,1.15
2023-04-03T14:22:57.575Z,1.25
2023-04-03T14:26:12.410Z,1.10
2023-04-03T14:29:21.557Z,0.82
2023-04-03T14:32:34.369Z,1.17
2023-04-03T14:35:45.253Z,0.90
2023-04-03T14:38:55.763Z,1.00
2023-04-03T14:42:08.116Z,1.00
2023-04-03T14:45:20.034Z,0.83
2023-04-03T14:48:29.884Z,1.37
2023-04-03T14:51:42.315Z,1.42
2023-04-03T14:54:53.399Z,1.07
2023-04-03T14:58:04.104Z,1.62
2023-04-03T15:01:15.808Z,1.20
2023-04-03T15:04:28.403Z,1.40
2023-04-03T15:07:41.492Z,1.45
2023-04-03T15:10:54.192Z,0.93
2023-04-03T15:14:07.533Z,1.30
2023-04-03T15:17:20.131Z,1.10
2023-04-03T15:20:33.913Z,0.85
2023-04-03T15:23:46.457Z,0.70
2023-04-03T15:26:53.918Z,0.90
2023-04-03T15:30:05.933Z,1.55
2023-04-03T15:33:14.926Z,1.07
2023-04-03T15:36:34.143Z,1.12
2023-04-03T15:39:37.890Z,0.98
2023-04-03T15:42:48.600Z,0.98
2023-04-03T15:45:59.691Z,1.00
2023-04-03T15:49:11.294Z,1.37
2023-04-03T15:52:19.878Z,1.30
2023-04-03T15:55:28.392Z,1.40
2023-04-03T15:58:43.672Z,1.20
2023-04-03T16:01:54.740Z,0.88
2023-04-03T16:05:02.197Z,1.07
2023-04-03T16:08:13.309Z,0.90
2023-04-03T16:11:24.832Z,1.55
2023-04-03T16:14:37.086Z,1.12
2023-04-03T16:17:46.984Z,1.52
2023-04-03T16:20:56.962Z,1.35
2023-04-03T16:24:08.388Z,1.00
2023-04-03T16:27:18.564Z,1.47
2023-04-03T16:30:28.457Z,1.37
2023-04-03T16:33:38.908Z,1.60
2023-04-03T16:36:49.480Z,2.27
2023-04-03T16:40:00.769Z,3.47
2023-04-03T16:43:10.658Z,3.58
2023-04-03T16:46:20.517Z,5.17
2023-04-03T16:49:32.767Z,5.05
2023-04-03T16:52:42.894Z,3.90
2023-04-03T16:55:55.578Z,3.15
2023-04-03T16:59:08.997Z,2.87
2023-04-03T17:02:19.661Z,1.75
2023-04-03T17:05:28.998Z,2.33
2023-04-03T17:08:40.447Z,2.27
2023-04-03T17:11:50.215Z,2.05
2023-04-03T17:15:00.170Z,1.70
2023-04-03T17:18:12.284Z,1.77
2023-04-03T17:21:24.906Z,1.30
2023-04-03T17:24:37.563Z,1.67
2023-04-03T17:31:03.419Z,1.17
2023-04-03T17:34:12.733Z,1.30
2023-04-03T17:37:22.862Z,1.02
2023-04-03T17:40:32.871Z,1.85
2023-04-03T17:43:45.297Z,1.52
2023-04-03T17:46:56.806Z,1.45
2023-04-03T17:50:07.621Z,1.70
2023-04-03T17:53:16.736Z,0.90
2023-04-03T17:56:26.749Z,0.95
2023-04-03T17:59:37.494Z,1.75
2023-04-03T18:02:46.654Z,1.60
2023-04-03T18:05:59.995Z,0.80
2023-04-03T18:09:14.840Z,0.93
2023-04-03T18:12:26.397Z,0.60
2023-04-03T18:15:39.192Z,1.25
2023-04-03T18:18:47.608Z,1.35
2023-04-03T18:22:02.501Z,0.80
2023-04-03T18:25:14.818Z,1.62
2023-04-03T18:28:28.806Z,0.80
2023-04-03T18:31:41.398Z,0.98
2023-04-03T18:34:53.408Z,0.62
2023-04-03T18:38:04.992Z,1.57
2023-04-03T18:41:14.591Z,0.75
2023-04-03T18:44:28.389Z,1.45
2023-04-03T18:47:38.342Z,0.80
2023-04-03T18:50:51.613Z,1.32
2023-04-03T18:54:01.382Z,0.80
2023-04-03T18:57:15.679Z,0.78
2023-04-03T19:00:30.681Z,0.62
2023-04-03T19:03:44.227Z,0.90
2023-04-03T19:06:57.647Z,1.05
2023-04-03T19:10:08.786Z,1.00
2023-04-03T19:13:18.048Z,0.98
2023-04-03T19:16:29.753Z,0.53
2023-04-03T19:19:41.986Z,0.75
2023-04-03T19:22:50.102Z,0.60
2023-04-03T19:26:06.824Z,0.82
2023-04-03T19:29:18.606Z,1.20
2023-04-03T19:32:27.191Z,0.95
2023-04-03T19:35:38.986Z,1.30
2023-04-03T19:38:47.137Z,1.05
2023-04-03T19:41:56.309Z,1.00
2023-04-03T19:45:09.486Z,0.60
2023-04-03T19:51:31.376Z,0.78
2023-04-03T19:54:43.863Z,0.80
2023-04-03T19:57:54.652Z,1.02
2023-04-03T20:01:05.658Z,0.88
2023-04-03T20:04:17.597Z,0.70
2023-04-03T20:07:28.274Z,0.75
2023-04-03T20:10:42.758Z,0.70
2023-04-03T20:13:53.368Z,0.50
2023-04-03T20:17:04.880Z,0.75
2023-04-03T20:20:20.058Z,0.60
2023-04-03T20:23:30.423Z,0.50
2023-04-03T20:26:43.067Z,1.25
2023-04-03T20:29:54.793Z,1.07
2023-04-03T20:33:06.765Z,0.70
2023-04-03T20:36:17.192Z,0.60
2023-04-03T20:39:30.750Z,0.72
2023-04-03T20:42:41.192Z,0.90
2023-04-03T20:45:53.101Z,0.88
2023-04-03T20:49:04.607Z,0.78
2023-04-03T20:52:15.390Z,0.80
2023-04-03T20:55:27.147Z,0.53
2023-04-03T20:58:35.313Z,0.70
2023-04-03T21:01:45.806Z,0.45
2023-04-03T21:04:57.788Z,0.50
2023-04-03T21:08:42.737Z,0.62
2023-04-03T21:12:25.688Z,0.80
2023-04-03T21:15:49.605Z,0.47
2023-04-03T21:19:07.781Z,0.80
2023-04-03T21:22:22.338Z,0.42
2023-04-03T21:25:32.477Z,0.93
2023-04-03T21:28:44.472Z,0.50
2023-04-03T21:31:59.622Z,1.10
2023-04-03T21:35:11.783Z,0.90
2023-04-03T21:38:23.214Z,0.50
2023-04-03T21:41:31.639Z,0.78
2023-04-03T21:44:43.177Z,0.60
2023-04-03T21:47:55.875Z,0.62
2023-04-03T21:51:12.776Z,0.90
2023-04-03T21:54:21.356Z,0.90
2023-04-03T21:57:32.930Z,1.00
2023-04-03T22:00:45.328Z,1.40
2023-04-03T22:03:54.535Z,0.87
2023-04-03T22:07:05.772Z,0.75
2023-04-03T22:10:18.432Z,0.95
2023-04-03T22:13:27.985Z,1.05
2023-04-03T22:16:38.982Z,0.60
2023-04-03T22:19:49.918Z,1.20
2023-04-03T22:23:01.346Z,0.90
2023-04-03T22:26:12.882Z,0.50
2023-04-03T22:29:25.422Z,0.72
2023-04-03T22:32:34.304Z,0.70
2023-04-03T22:35:49.384Z,0.55
2023-04-03T22:38:57.948Z,0.68
2023-04-03T22:42:11.460Z,0.75
2023-04-03T22:45:21.561Z,0.90
2023-04-03T22:48:32.335Z,0.75
2023-04-03T22:51:44.298Z,0.88
2023-04-03T22:54:58.014Z,0.55
2023-04-03T22:58:09.086Z,0.93
2023-04-03T23:01:22.449Z,0.60
2023-04-03T23:04:33.458Z,0.88
2023-04-03T23:07:44.360Z,0.82
2023-04-03T23:10:55.719Z,1.00
2023-04-03T23:14:05.880Z,0.98
2023-04-03T23:17:16.615Z,1.50
2023-04-03T23:20:28.040Z,1.05
2023-04-03T23:23:36.310Z,0.90
2023-04-03T23:26:47.946Z,0.90
2023-04-03T23:29:59.528Z,0.88
2023-04-03T23:33:09.301Z,1.07
2023-04-03T23:36:22.285Z,0.88
2023-04-03T23:39:32.247Z,1.17
2023-04-03T23:42:40.684Z,0.80
2023-04-03T23:45:52.150Z,0.80
2023-04-03T23:49:02.284Z,0.93
2023-04-03T23:52:11.503Z,0.60
2023-04-03T23:55:23.583Z,0.90
2023-04-03T23:58:37.063Z,0.50
